createdAt,value
2019-03-10T00:04:27.937Z,7.30
2019-03-10T00:09:32.123Z,7.20
2019-03-10T00:14:36.327Z,7.20
2019-03-10T00:19:40.572Z,7.20
2019-03-10T00:24:44.770Z,7.30
2019-03-10T00:29:48.941Z,7.50
2019-03-10T00:34:53.129Z,7.50
2019-03-10T00:40:42.469Z,7.50
2019-03-10T00:46:26.113Z,7.40
2019-03-10T00:52:14.391Z,7.30
2019-03-10T00:57:18.577Z,7.30
2019-03-10T01:02:22.769Z,7.30
2019-03-10T01:07:27.037Z,7.50
2019-03-10T01:12:31.403Z,7.60
2019-03-10T01:17:35.691Z,7.80
2019-03-10T01:22:39.878Z,7.80
2019-03-10T01:27:44.070Z,7.80
2019-03-10T01:33:35.375Z,7.70
2019-03-10T01:38:39.568Z,7.70
2019-03-10T01:43:43.736Z,7.70
2019-03-10T01:48:47.924Z,7.70
2019-03-10T01:53:52.112Z,7.80
2019-03-10T01:58:56.288Z,7.80
2019-03-10T02:04:00.486Z,7.90
2019-03-10T02:09:06.360Z,7.80
2019-03-10T02:14:10.618Z,8.00
2019-03-10T02:19:14.872Z,8.00
2019-03-10T02:24:23.671Z,7.90
2019-03-10T02:29:24.972Z,7.90
2019-03-10T02:34:29.239Z,7.90
2019-03-10T02:39:33.420Z,7.90
2019-03-10T02:44:37.604Z,8.00
2019-03-10T02:49:41.839Z,7.90
2019-03-10T02:54:46.095Z,7.80
2019-03-10T02:59:50.517Z,7.90
2019-03-10T03:04:54.681Z,7.80
2019-03-10T03:09:58.846Z,7.70
2019-03-10T03:15:03.116Z,7.60
2019-03-10T03:20:08.040Z,7.80
2019-03-10T03:25:12.253Z,7.70
2019-03-10T03:30:17.766Z,7.70
2019-03-10T03:35:54.216Z,7.60
2019-03-10T03:41:04.068Z,7.70
2019-03-10T03:46:08.322Z,7.70
2019-03-10T03:51:12.536Z,7.70
2019-03-10T03:56:16.704Z,7.70
2019-03-10T04:01:33.669Z,7.70
2019-03-10T04:06:37.911Z,7.80
2019-03-10T04:11:42.068Z,7.90
2019-03-10T04:16:46.249Z,7.90
2019-03-10T04:21:50.409Z,8.10
2019-03-10T04:26:54.788Z,8.20
2019-03-10T04:31:59.033Z,8.30
2019-03-10T04:37:03.231Z,8.20
2019-03-10T04:42:07.421Z,8.20
2019-03-10T04:47:11.595Z,8.20
2019-03-10T04:52:15.750Z,8.00
2019-03-10T04:57:21.528Z,7.90
2019-03-10T05:02:25.696Z,8.00
2019-03-10T05:07:29.875Z,8.00
2019-03-10T05:12:34.053Z,7.90
2019-03-10T05:17:38.271Z,7.90
2019-03-10T05:22:42.531Z,7.80
2019-03-10T05:27:46.710Z,7.90
2019-03-10T05:32:50.880Z,7.80
2019-03-10T05:37:55.159Z,7.80
2019-03-10T05:42:59.348Z,7.60
2019-03-10T05:48:03.533Z,7.70
2019-03-10T05:53:07.718Z,7.90
2019-03-10T05:58:11.967Z,8.00
2019-03-10T06:03:16.166Z,8.00
2019-03-10T06:08:20.362Z,8.00
2019-03-10T06:13:24.541Z,8.20
2019-03-10T06:18:28.794Z,8.20
2019-03-10T06:23:32.985Z,8.20
2019-03-10T06:28:37.168Z,8.10
2019-03-10T06:33:41.379Z,8.20
2019-03-10T06:38:45.589Z,8.10
2019-03-10T06:43:49.769Z,8.40
2019-03-10T06:48:53.944Z,8.30
2019-03-10T06:53:58.149Z,7.90
2019-03-10T06:59:02.322Z,8.00
2019-03-10T07:04:06.486Z,8.00
2019-03-10T07:09:10.659Z,8.00
2019-03-10T07:14:14.913Z,8.00
2019-03-10T07:19:19.095Z,7.80
2019-03-10T07:24:23.345Z,7.90
2019-03-10T07:29:43.984Z,8.20
2019-03-10T07:35:17.794Z,7.90
2019-03-10T08:45:20.729Z,6.80
2019-03-10T08:50:49.884Z,6.80
2019-03-10T08:56:13.177Z,6.90
2019-03-10T09:01:36.379Z,6.70
2019-03-10T09:07:03.773Z,6.90
2019-03-10T09:12:22.582Z,7.10
2019-03-10T09:18:03.964Z,7.00
2019-03-10T09:23:28.797Z,7.00
2019-03-10T09:28:52.028Z,7.10
2019-03-10T09:34:18.270Z,7.40
2019-03-10T09:39:50.392Z,7.70
2019-03-10T09:45:13.616Z,7.70
2019-03-10T09:50:28.212Z,7.70
2019-03-10T09:56:06.778Z,7.70
2019-03-10T10:01:45.370Z,7.60
2019-03-10T10:06:57.643Z,7.80
2019-03-10T10:12:13.614Z,7.80
2019-03-10T10:17:31.789Z,7.80
2019-03-10T10:22:42.092Z,8.10
2019-03-10T10:28:14.383Z,8.00
2019-03-10T10:33:41.434Z,8.00
2019-03-10T10:38:54.192Z,8.00
2019-03-10T10:44:21.743Z,8.30
2019-03-10T10:49:50.813Z,8.30
2019-03-10T10:55:10.085Z,8.50
2019-03-10T11:00:23.321Z,8.90
2019-03-10T11:05:39.286Z,9.00
2019-03-10T11:11:01.199Z,8.80
2019-03-10T11:16:11.664Z,8.80
2019-03-10T11:21:33.991Z,8.50
2019-03-10T11:26:45.133Z,8.70
2019-03-10T11:32:11.371Z,8.60
2019-03-10T11:37:38.457Z,8.70
2019-03-10T11:42:56.911Z,8.90
2019-03-10T11:48:15.586Z,9.00
2019-03-10T11:53:44.575Z,9.30
2019-03-10T11:59:14.081Z,9.40
2019-03-10T12:04:46.725Z,9.30
2019-03-10T12:09:50.903Z,9.10
2019-03-10T12:14:55.091Z,9.10
2019-03-10T12:19:59.287Z,9.10
2019-03-10T12:25:03.713Z,9.00
2019-03-10T12:30:08.754Z,8.80
2019-03-10T12:35:12.972Z,8.70
2019-03-10T12:40:17.156Z,8.60
2019-03-10T12:45:21.412Z,8.60
2019-03-10T12:50:26.257Z,8.30
2019-03-10T12:55:30.603Z,7.90
2019-03-10T13:00:34.870Z,7.80
2019-03-10T13:05:39.058Z,7.80
2019-03-10T13:10:43.225Z,7.90
2019-03-10T13:15:47.438Z,7.60
2019-03-10T13:20:51.641Z,7.80
2019-03-10T13:25:55.820Z,7.90
2019-03-10T13:31:00.094Z,8.00
2019-03-10T13:36:04.810Z,7.70
2019-03-10T13:41:09.043Z,7.60
2019-03-10T13:46:13.281Z,7.60
2019-03-10T13:51:17.460Z,7.80
2019-03-10T13:56:21.782Z,7.60
2019-03-10T14:01:25.959Z,7.70
2019-03-10T14:06:30.211Z,7.60
2019-03-10T14:11:34.400Z,7.30
2019-03-10T14:16:38.624Z,7.40
2019-03-10T14:21:42.814Z,7.30
2019-03-10T14:26:47.013Z,7.20
2019-03-10T14:31:53.165Z,7.20
2019-03-10T14:36:57.204Z,7.40
2019-03-10T14:42:01.450Z,7.50
2019-03-10T14:47:05.729Z,7.50
2019-03-10T14:52:09.919Z,7.60
2019-03-10T14:57:14.115Z,7.60
2019-03-10T15:02:18.313Z,7.60
2019-03-10T15:07:22.507Z,7.40
2019-03-10T15:12:26.704Z,7.30
2019-03-10T15:17:30.951Z,7.10
2019-03-10T15:22:35.211Z,7.00
2019-03-10T15:27:39.405Z,7.10
2019-03-10T15:32:43.591Z,7.10
2019-03-10T15:37:47.793Z,7.00
2019-03-10T15:42:51.990Z,7.00
2019-03-10T15:47:56.168Z,6.80
2019-03-10T15:53:00.434Z,6.80
2019-03-10T15:58:05.148Z,6.60
2019-03-10T16:03:09.345Z,6.60
2019-03-10T16:08:13.545Z,6.30
2019-03-10T16:13:17.757Z,6.30
2019-03-10T16:18:22.056Z,6.30
2019-03-10T16:23:26.251Z,6.00
2019-03-10T16:28:30.527Z,6.10
2019-03-10T16:33:34.714Z,6.00
2019-03-10T16:38:39.013Z,5.90
2019-03-10T16:43:43.226Z,5.70
2019-03-10T16:48:47.516Z,5.80
2019-03-10T16:53:51.712Z,5.90
2019-03-10T16:58:55.896Z,5.20
2019-03-10T17:04:00.199Z,4.70
2019-03-10T17:09:17.500Z,4.40
2019-03-10T17:14:21.785Z,4.20
2019-03-10T17:19:26.071Z,4.20
2019-03-10T17:24:30.308Z,4.00
2019-03-10T17:29:35.722Z,3.70
2019-03-10T17:34:39.921Z,3.40
2019-03-10T17:39:44.124Z,3.30
2019-03-10T17:44:48.320Z,3.40
2019-03-10T17:49:52.518Z,3.20
2019-03-10T17:54:56.704Z,3.00
2019-03-10T18:00:00.948Z,2.90
2019-03-10T18:05:06.846Z,2.90
2019-03-10T18:10:11.787Z,2.60
2019-03-10T18:15:16.153Z,2.70
2019-03-10T18:20:20.434Z,2.50
2019-03-10T18:25:24.629Z,2.60
2019-03-10T18:30:28.892Z,2.50
2019-03-10T18:35:33.111Z,2.50
2019-03-10T18:40:37.315Z,2.60
2019-03-10T18:45:41.691Z,2.60
2019-03-10T18:50:46.039Z,2.70
2019-03-10T18:55:50.224Z,2.80
2019-03-10T19:00:54.439Z,2.90
2019-03-10T19:05:58.737Z,2.90
2019-03-10T19:11:03.026Z,3.10
2019-03-10T19:16:07.321Z,3.30
2019-03-10T19:21:11.593Z,3.30
2019-03-10T19:26:15.824Z,3.40
2019-03-10T19:31:20.214Z,3.30
2019-03-10T19:36:24.703Z,3.30
2019-03-10T19:41:29.472Z,3.20
2019-03-10T19:46:33.683Z,3.40
2019-03-10T19:51:37.967Z,3.40
2019-03-10T19:56:42.201Z,3.60
2019-03-10T20:01:46.424Z,3.70
2019-03-10T20:06:50.877Z,3.70
2019-03-10T20:11:55.180Z,3.70
2019-03-10T20:16:59.383Z,3.70
2019-03-10T20:22:03.648Z,3.50
2019-03-10T20:27:08.023Z,3.70
2019-03-10T20:32:14.235Z,3.80
2019-03-10T20:37:18.234Z,3.80
2019-03-10T20:42:22.505Z,4.00
2019-03-10T20:47:28.296Z,4.00
2019-03-10T20:52:32.684Z,3.90
2019-03-10T20:57:37.005Z,3.80
2019-03-10T21:02:41.284Z,3.90
2019-03-10T21:07:45.567Z,3.80
2019-03-10T21:12:50.145Z,3.80
2019-03-10T21:17:54.399Z,3.80
2019-03-10T21:22:58.645Z,3.90
2019-03-10T21:28:02.891Z,3.90
2019-03-10T21:33:07.098Z,3.70
2019-03-10T21:38:12.750Z,3.60
2019-03-10T21:43:16.958Z,3.60
2019-03-10T21:48:21.278Z,3.60
2019-03-10T21:53:25.497Z,3.80
2019-03-10T21:58:29.720Z,3.80
2019-03-10T22:03:33.990Z,3.80
2019-03-10T22:08:38.270Z,3.60
2019-03-10T22:13:46.557Z,3.30
2019-03-10T22:18:48.438Z,3.30
2019-03-10T22:23:59.374Z,3.30
2019-03-10T22:28:58.609Z,3.30
2019-03-10T22:34:02.876Z,3.30
2019-03-10T22:39:08.130Z,3.50
2019-03-10T22:44:12.322Z,3.50
2019-03-10T22:49:16.503Z,3.50
2019-03-10T22:54:20.764Z,3.50
2019-03-10T22:59:24.928Z,3.60
2019-03-10T23:04:29.140Z,3.70
2019-03-10T23:09:33.340Z,3.80
2019-03-10T23:14:37.614Z,4.00
2019-03-10T23:19:41.812Z,4.00
2019-03-10T23:24:46.032Z,4.10
2019-03-10T23:29:50.247Z,4.20
2019-03-10T23:34:54.582Z,4.20
2019-03-10T23:39:58.816Z,4.30
2019-03-10T23:45:02.977Z,4.30
2019-03-10T23:50:07.833Z,4.30
2019-03-10T23:55:12.190Z,4.30
